Time;durP1;ratioP1;P1;durP2;ratioP2;P2;SDS_P1;SDS_P2;PMS_P1;PMS_P2;Temp;Humidity;BMP_temperature;BMP_pressure;BME280_temperature;BME280_humidity;BME280_pressure;Samples;Min_cycle;Max_cycle;Signal;HPM_P1;HPM_P2
2022/02/22 00:00:10;;;;;;;21.30;13.30;;;;;;;10.99;63.31;100682.69;1801420;78;21045;-77
2022/02/22 00:02:40;;;;;;;22.60;14.03;;;;;;;10.99;63.41;100676.17;1766068;79;21015;-75
2022/02/22 00:05:09;;;;;;;21.10;13.62;;;;;;;10.99;63.47;100672.27;1760912;81;21568;-75
2022/02/22 00:07:36;;;;;;;19.82;12.58;;;;;;;11.00;63.53;100671.83;1772037;79;20962;-75
2022/02/22 00:10:04;;;;;;;25.68;13.45;;;;;;;11.01;63.49;100671.78;1772945;80;20986;-79
2022/02/22 00:12:31;;;;;;;17.30;13.20;;;;;;;11.03;63.45;100666.09;1768755;80;21030;-75
2022/02/22 00:14:59;;;;;;;25.80;14.13;;;;;;;11.03;63.37;100664.80;1776726;79;20959;-76
2022/02/22 00:17:25;;;;;;;24.63;14.55;;;;;;;11.03;63.26;100657.42;1751348;81;20970;-72
2022/02/22 00:19:52;;;;;;;21.07;13.68;;;;;;;11.03;63.21;100652.21;1772199;79;20990;-73
2022/02/22 00:22:19;;;;;;;20.23;13.95;;;;;;;10.99;63.24;100647.98;1801566;78;21006;-75
2022/02/22 00:24:45;;;;;;;25.52;15.68;;;;;;;10.97;63.25;100645.42;1801568;78;20994;-72
2022/02/22 00:27:11;;;;;;;26.93;15.00;;;;;;;10.97;63.35;100646.72;1769902;79;20979;-75
2022/02/22 00:29:38;;;;;;;19.70;15.50;;;;;;;10.96;63.40;100641.13;1779123;80;21011;-76
2022/02/22 00:32:05;;;;;;;23.22;14.68;;;;;;;10.97;63.48;100640.21;1757017;81;21011;-72
2022/02/22 00:34:32;;;;;;;27.07;15.45;;;;;;;10.96;63.47;100637.22;1771046;79;20984;-80
2022/02/22 00:36:59;;;;;;;24.55;14.60;;;;;;;10.96;63.49;100638.52;1770577;79;21049;-75
2022/02/22 00:39:26;;;;;;;20.88;14.63;;;;;;;10.96;63.51;100632.45;1799219;78;20975;-73
2022/02/22 00:41:52;;;;;;;22.30;13.60;;;;;;;10.95;63.55;100640.70;1758981;81;21033;-76
2022/02/22 00:44:19;;;;;;;18.25;13.03;;;;;;;10.95;63.51;100628.98;1745427;82;21033;-75
2022/02/22 00:46:47;;;;;;;20.48;12.93;;;;;;;10.94;63.45;100629.86;1774148;79;20979;-72
2022/02/22 00:49:14;;;;;;;18.75;14.28;;;;;;;10.93;63.59;100620.80;1773501;79;20987;-75
2022/02/22 00:51:40;;;;;;;18.02;13.32;;;;;;;10.92;63.59;100621.23;1770562;79;20955;-73
2022/02/22 00:54:07;;;;;;;19.85;15.00;;;;;;;10.91;63.71;100613.03;1759991;81;21026;-73
2022/02/22 00:56:33;;;;;;;22.95;15.72;;;;;;;10.92;63.78;100617.80;1771297;79;21007;-78
2022/02/22 00:58:59;;;;;;;22.82;15.15;;;;;;;10.91;63.87;100606.52;1772735;79;21062;-73
2022/02/22 01:01:26;;;;;;;21.27;14.85;;;;;;;10.90;63.87;100607.41;1727018;82;20986;-74
2022/02/22 01:03:52;;;;;;;20.02;15.48;;;;;;;10.89;63.95;100603.11;1763471;79;21056;-77
2022/02/22 01:06:19;;;;;;;17.77;13.65;;;;;;;10.88;64.12;100600.55;1763251;79;21019;-71
2022/02/22 01:08:46;;;;;;;17.73;13.70;;;;;;;10.88;64.07;100603.98;1729134;81;21058;-73
2022/02/22 01:11:13;;;;;;;17.82;13.98;;;;;;;10.89;64.08;100595.30;1765296;79;21038;-75
2022/02/22 01:13:39;;;;;;;19.87;15.18;;;;;;;10.87;64.08;100593.18;1731341;82;21041;-72
2022/02/22 01:16:06;;;;;;;20.68;15.40;;;;;;;10.87;64.24;100594.48;1765281;79;20986;-71
2022/02/22 01:18:34;;;;;;;18.98;15.38;;;;;;;10.89;64.29;100592.70;1728464;82;21101;-74
2022/02/22 01:21:19;;;;;;;18.50;14.53;;;;;;;10.89;64.34;100586.19;1769960;79;21090;-71
2022/02/22 01:23:46;;;;;;;24.77;14.33;;;;;;;10.90;64.31;100581.84;1729997;82;21026;-72
2022/02/22 01:26:12;;;;;;;18.45;15.08;;;;;;;10.90;64.39;100583.98;1765582;80;21002;-74
2022/02/22 01:28:44;;;;;;;19.12;13.95;;;;;;;10.92;64.36;100586.56;1731323;82;21628;-75
2022/02/22 01:31:11;;;;;;;17.42;13.75;;;;;;;10.93;64.37;100583.05;1765369;79;21003;-72
2022/02/22 01:33:38;;;;;;;15.80;13.55;;;;;;;10.93;64.28;100582.61;1728166;82;21086;-73
2022/02/22 01:36:05;;;;;;;16.65;12.63;;;;;;;10.93;64.24;100573.50;1763243;79;21010;-74
2022/02/22 01:38:31;;;;;;;15.28;13.05;;;;;;;10.94;64.21;100572.59;1763383;79;20951;-71
2022/02/22 01:40:58;;;;;;;17.90;13.70;;;;;;;10.95;64.19;100573.02;1725182;82;21503;-73
2022/02/22 01:43:24;;;;;;;19.42;13.60;;;;;;;10.94;64.19;100575.19;1764947;79;20963;-76
2022/02/22 01:45:51;;;;;;;17.80;12.63;;;;;;;10.96;64.24;100570.83;1730315;82;21082;-78
2022/02/22 01:48:17;;;;;;;24.35;14.00;;;;;;;10.96;64.23;100563.02;1766886;79;20968;-71
2022/02/22 01:50:44;;;;;;;20.15;13.90;;;;;;;10.97;64.27;100563.41;1759634;79;21101;-74
2022/02/22 01:53:10;;;;;;;21.17;13.45;;;;;;;10.99;64.24;100561.63;1728088;81;20998;-71
2022/02/22 01:55:38;;;;;;;20.90;14.30;;;;;;;11.00;64.20;100549.03;1763216;79;21047;-72
2022/02/22 01:58:04;;;;;;;22.90;14.45;;;;;;;10.99;64.15;100542.09;1731741;82;21604;-73
2022/02/22 02:00:31;;;;;;;24.90;13.03;;;;;;;10.99;64.11;100543.39;1731345;81;21491;-77
2022/02/22 02:02:59;;;;;;;22.60;13.88;;;;;;;10.98;64.13;100540.41;1726964;82;21092;-73
2022/02/22 02:05:26;;;;;;;23.18;12.63;;;;;;;10.99;64.17;100542.53;1731490;81;20991;-71
2022/02/22 02:07:54;;;;;;;21.23;13.05;;;;;;;10.99;64.20;100541.23;1731205;81;21027;-73
2022/02/22 02:10:21;;;;;;;20.50;13.83;;;;;;;10.98;64.15;100535.20;1728575;81;20991;-72
2022/02/22 02:12:47;;;;;;;23.98;13.43;;;;;;;10.98;64.09;100529.98;1757502;79;21027;-73
2022/02/22 02:15:14;;;;;;;17.37;13.25;;;;;;;10.98;64.18;100528.69;1765615;81;20951;-74
2022/02/22 02:17:40;;;;;;;18.12;12.55;;;;;;;10.99;64.24;100534.28;1765055;79;21003;-70
2022/02/22 02:20:09;;;;;;;24.92;13.72;;;;;;;11.01;64.15;100530.33;1759318;80;20998;-70
2022/02/22 02:22:36;;;;;;;23.57;14.00;;;;;;;11.01;64.17;100528.59;1766815;79;21006;-72
2022/02/22 02:25:05;;;;;;;28.87;13.62;;;;;;;11.02;64.10;100526.84;1762537;81;21002;-75
2022/02/22 02:27:32;;;;;;;20.20;12.63;;;;;;;11.02;64.02;100519.90;1726574;81;20987;-71
2022/02/22 02:30:01;;;;;;;24.52;13.88;;;;;;;11.03;63.98;100512.48;1765358;79;21003;-73
2022/02/22 02:32:28;;;;;;;24.85;12.93;;;;;;;11.04;63.94;100519.41;1765001;79;21491;-75
2022/02/22 02:34:55;;;;;;;17.15;11.65;;;;;;;11.05;63.93;100515.89;1765363;79;20999;-72
2022/02/22 02:37:22;;;;;;;19.45;12.73;;;;;;;11.05;63.91;100520.23;1757242;81;21010;-71
2022/02/22 02:39:49;;;;;;;16.85;11.85;;;;;;;11.05;63.98;100518.94;1730414;82;21015;-72
2022/02/22 02:42:17;;;;;;;21.70;13.05;;;;;;;11.05;63.96;100519.80;1763453;80;21019;-72
2022/02/22 02:44:44;;;;;;;23.57;12.40;;;;;;;11.06;64.00;100522.82;1764396;81;20974;-73
2022/02/22 02:47:11;;;;;;;28.92;13.85;;;;;;;11.07;63.96;100523.66;1730128;81;21515;-71
2022/02/22 02:49:38;;;;;;;19.15;11.93;;;;;;;11.08;64.03;100531.45;1764881;79;21034;-74
2022/02/22 02:52:07;;;;;;;20.68;12.53;;;;;;;11.09;64.00;100529.67;1765086;79;21018;-71
2022/02/22 02:54:34;;;;;;;24.15;11.43;;;;;;;11.09;64.01;100532.27;1756238;79;21010;-73
2022/02/22 02:57:01;;;;;;;26.85;13.40;;;;;;;11.11;64.01;100535.25;1761971;81;21268;-71
2022/02/22 02:59:30;;;;;;;22.35;12.53;;;;;;;11.12;64.01;100539.58;1731240;81;21031;-70
2022/02/22 03:01:56;;;;;;;19.50;11.03;;;;;;;11.11;64.01;100546.97;1764551;79;21031;-71
2022/02/22 03:04:22;;;;;;;22.42;12.07;;;;;;;11.14;64.17;100548.64;1762267;79;20943;-74
2022/02/22 03:06:49;;;;;;;25.92;12.82;;;;;;;11.16;64.14;100549.45;1763305;79;21038;-71
2022/02/22 03:09:16;;;;;;;21.95;11.80;;;;;;;11.18;64.12;100542.45;1759345;81;21035;-71
2022/02/22 03:11:42;;;;;;;21.30;11.90;;;;;;;11.21;64.11;100547.59;1797851;78;20987;-71
2022/02/22 03:14:09;;;;;;;19.48;11.73;;;;;;;11.22;64.13;100550.14;1766785;79;20995;-71
2022/02/22 03:16:36;;;;;;;23.67;12.28;;;;;;;11.24;63.99;100541.84;1764132;79;21558;-73
2022/02/22 03:19:03;;;;;;;25.60;12.50;;;;;;;11.25;63.94;100537.02;1761969;81;21568;-74
2022/02/22 03:21:33;;;;;;;22.55;11.63;;;;;;;11.26;63.88;100535.28;1766392;79;21492;-70
2022/02/22 03:23:59;;;;;;;20.80;12.20;;;;;;;11.26;63.87;100536.14;1748672;81;21049;-74
2022/02/22 03:26:27;;;;;;;22.48;11.50;;;;;;;11.28;63.85;100539.56;1799904;78;21053;-72
2022/02/22 03:28:55;;;;;;;19.20;12.10;;;;;;;11.30;63.89;100532.55;1799623;78;21034;-74
2022/02/22 03:31:22;;;;;;;22.32;12.35;;;;;;;11.31;63.80;100534.24;1762101;81;21485;-72
2022/02/22 03:33:52;;;;;;;21.80;12.45;;;;;;;11.32;63.65;100530.76;1766079;79;21459;-71
2022/02/22 03:36:21;;;;;;;22.90;12.58;;;;;;;11.32;63.63;100535.97;1762741;81;20983;-73
2022/02/22 03:38:48;;;;;;;20.72;12.05;;;;;;;11.33;63.61;100526.41;1794625;78;20959;-72
2022/02/22 03:41:16;;;;;;;20.62;12.23;;;;;;;11.33;63.57;100526.41;1788888;79;21506;-72
2022/02/22 03:43:44;;;;;;;22.90;12.63;;;;;;;11.33;63.53;100527.23;1766407;79;21487;-74
2022/02/22 03:46:11;;;;;;;21.80;10.72;;;;;;;11.33;63.42;100527.23;1798270;78;21046;-72
2022/02/22 03:48:39;;;;;;;19.70;10.85;;;;;;;11.33;63.51;100524.63;1798055;78;20983;-74
2022/02/22 03:51:06;;;;;;;19.23;11.43;;;;;;;11.34;63.56;100525.50;1763769;79;21014;-72
2022/02/22 03:53:33;;;;;;;22.65;11.85;;;;;;;11.33;63.51;100528.54;1765762;79;20975;-74
2022/02/22 03:56:00;;;;;;;21.27;12.05;;;;;;;11.34;63.60;100525.05;1798920;78;21479;-72
2022/02/22 03:58:27;;;;;;;25.95;11.55;;;;;;;11.34;63.53;100531.56;1767958;79;20951;-76
2022/02/22 04:00:54;;;;;;;20.55;11.88;;;;;;;11.36;63.55;100527.16;1760214;81;21018;-75
2022/02/22 04:03:21;;;;;;;22.80;11.55;;;;;;;11.36;63.53;100531.08;1765515;79;21018;-74
2022/02/22 04:05:49;;;;;;;25.32;12.70;;;;;;;11.37;63.55;100530.63;1766757;79;21050;-76
2022/02/22 04:08:15;;;;;;;20.10;11.95;;;;;;;11.38;63.65;100531.88;1767297;80;21542;-73
2022/02/22 04:10:43;;;;;;;18.12;11.30;;;;;;;11.39;63.66;100532.30;1768185;79;21019;-74
2022/02/22 04:13:10;;;;;;;18.75;11.88;;;;;;;11.41;63.63;100534.42;1768438;79;20943;-72
2022/02/22 04:15:37;;;;;;;20.82;11.20;;;;;;;11.42;63.67;100530.90;1766397;79;21495;-73
2022/02/22 04:18:04;;;;;;;23.18;11.20;;;;;;;11.45;63.67;100528.22;1765133;79;20943;-74
2022/02/22 04:20:31;;;;;;;18.82;10.98;;;;;;;11.48;63.61;100532.94;1765361;79;21003;-73
2022/02/22 04:22:58;;;;;;;25.52;12.80;;;;;;;11.48;63.54;100530.72;1765508;79;21479;-73
2022/02/22 04:25:25;;;;;;;21.87;11.85;;;;;;;11.51;63.59;100528.92;1765191;79;20987;-75
2022/02/22 04:27:52;;;;;;;25.48;12.88;;;;;;;11.53;63.47;100528.42;1767845;79;21045;-74
2022/02/22 04:30:19;;;;;;;19.17;11.43;;;;;;;11.54;63.41;100524.94;1768552;79;20975;-74
2022/02/22 04:32:47;;;;;;;22.32;11.97;;;;;;;11.55;63.39;100532.70;1767259;79;21514;-73
2022/02/22 04:35:13;;;;;;;17.10;11.03;;;;;;;11.57;63.31;100528.30;1765481;79;21023;-76
2022/02/22 04:37:41;;;;;;;22.20;11.43;;;;;;;11.58;63.27;100529.16;1770907;79;21479;-77
2022/02/22 04:40:09;;;;;;;22.80;11.88;;;;;;;11.60;63.17;100529.97;1768926;80;21034;-77
2022/02/22 04:42:36;;;;;;;18.87;11.25;;;;;;;11.61;63.17;100526.45;1762886;81;21046;-73
2022/02/22 04:45:04;;;;;;;18.82;11.63;;;;;;;11.61;63.10;100529.05;1730603;81;21531;-76
2022/02/22 04:47:32;;;;;;;19.73;11.55;;;;;;;11.63;63.06;100531.16;1765495;79;21487;-74
2022/02/22 04:49:59;;;;;;;20.55;10.95;;;;;;;11.63;63.05;100532.47;1765125;79;20999;-73
2022/02/22 04:52:26;;;;;;;22.73;12.33;;;;;;;11.64;63.05;100526.38;1765261;79;21513;-76
2022/02/22 04:54:53;;;;;;;23.65;11.90;;;;;;;11.65;63.06;100525.45;1765194;79;20983;-75
2022/02/22 04:57:20;;;;;;;20.62;10.55;;;;;;;11.66;62.90;100532.39;1766118;79;20987;-74
2022/02/22 04:59:47;;;;;;;17.05;10.85;;;;;;;11.67;62.88;100537.59;1768287;79;21532;-78
2022/02/22 05:02:14;;;;;;;20.95;10.75;;;;;;;11.68;62.94;100533.23;1768145;79;21089;-76
2022/02/22 05:04:41;;;;;;;18.05;10.95;;;;;;;11.69;62.85;100532.31;1766256;79;20987;-79
2022/02/22 05:07:09;;;;;;;24.95;11.63;;;;;;;11.70;62.82;100532.73;1765523;79;21515;-75
2022/02/22 05:09:36;;;;;;;20.68;10.40;;;;;;;11.71;62.79;100538.34;1762344;79;21018;-74
2022/02/22 05:12:04;;;;;;;17.32;10.55;;;;;;;11.73;62.77;100537.84;1765236;79;21010;-74
2022/02/22 05:14:31;;;;;;;15.03;10.50;;;;;;;11.72;62.60;100540.92;1765487;79;21003;-75
2022/02/22 05:16:58;;;;;;;18.20;10.48;;;;;;;11.73;62.79;100542.61;1765309;79;21046;-76
2022/02/22 05:19:25;;;;;;;23.10;11.57;;;;;;;11.75;62.81;100539.95;1761692;79;21447;-81
2022/02/22 05:21:52;;;;;;;18.15;10.88;;;;;;;11.76;62.77;100546.89;1768402;79;21054;-75
2022/02/22 05:24:18;;;;;;;18.02;10.58;;;;;;;11.78;62.77;100541.18;1767094;79;20982;-76
2022/02/22 05:26:45;;;;;;;15.93;9.35;;;;;;;11.80;62.77;100550.67;1766077;79;21506;-74
2022/02/22 05:29:13;;;;;;;18.40;11.55;;;;;;;11.83;62.82;100556.25;1767198;80;21502;-77
2022/02/22 05:31:40;;;;;;;21.55;10.72;;;;;;;11.86;62.78;100557.44;1768422;79;20990;-75
2022/02/22 05:34:07;;;;;;;17.87;9.80;;;;;;;11.89;62.78;100562.58;1768436;79;21002;-75
2022/02/22 05:36:34;;;;;;;17.48;10.15;;;;;;;11.92;62.70;100554.20;1761501;79;21557;-77
2022/02/22 05:39:01;;;;;;;14.63;9.43;;;;;;;11.94;62.68;100556.76;1770525;79;20991;-75
2022/02/22 05:41:28;;;;;;;18.12;10.55;;;;;;;11.97;62.60;100557.98;1765015;79;21058;-77
2022/02/22 05:43:55;;;;;;;18.90;10.23;;;;;;;11.99;62.41;100562.70;1767036;79;21533;-74
2022/02/22 05:46:22;;;;;;;18.23;8.93;;;;;;;12.01;62.44;100564.81;1758424;81;21053;-75
2022/02/22 05:48:49;;;;;;;16.93;9.88;;;;;;;12.03;62.46;100556.49;1720043;81;21034;-78
2022/02/22 05:51:17;;;;;;;13.90;8.58;;;;;;;12.05;62.53;100555.55;1766357;79;21487;-75
2022/02/22 05:53:44;;;;;;;17.65;9.38;;;;;;;12.09;62.39;100560.22;1768507;79;21018;-77
2022/02/22 05:56:11;;;;;;;17.35;8.43;;;;;;;12.12;62.26;100561.41;1768338;79;21018;-80
2022/02/22 05:58:37;;;;;;;14.05;9.15;;;;;;;12.14;62.23;100562.21;1766329;79;20971;-76
2022/02/22 06:01:04;;;;;;;22.00;8.93;;;;;;;12.16;62.12;100556.49;1766786;79;21546;-77
2022/02/22 06:03:31;;;;;;;16.75;8.48;;;;;;;12.18;62.02;100556.86;1767366;80;21038;-77
2022/02/22 06:05:59;;;;;;;16.32;9.00;;;;;;;12.20;61.91;100555.50;1768338;79;21031;-78
2022/02/22 06:08:27;;;;;;;17.00;8.48;;;;;;;12.21;61.94;100553.30;1768735;79;20967;-75
2022/02/22 06:10:54;;;;;;;15.15;9.35;;;;;;;12.22;61.88;100557.16;1766443;79;21022;-78
2022/02/22 06:13:21;;;;;;;19.82;9.45;;;;;;;12.24;61.93;100559.75;1761947;79;21032;-76
2022/02/22 06:15:49;;;;;;;20.72;8.60;;;;;;;12.28;61.97;100562.66;1757927;80;21066;-77
2022/02/22 06:18:17;;;;;;;17.42;8.55;;;;;;;12.31;61.87;100567.77;1764441;79;21031;-75
2022/02/22 06:20:44;;;;;;;18.55;8.65;;;;;;;12.34;61.82;100570.29;1765618;79;21011;-77
2022/02/22 06:23:12;;;;;;;15.10;8.35;;;;;;;12.37;61.74;100572.78;1765323;79;21019;-78
2022/02/22 06:25:39;;;;;;;19.15;9.28;;;;;;;12.41;61.72;100576.14;1765138;79;20987;-75
2022/02/22 06:28:07;;;;;;;12.82;7.97;;;;;;;12.44;61.63;100578.67;1766620;79;21502;-75
2022/02/22 06:30:35;;;;;;;14.73;7.60;;;;;;;12.47;61.63;100583.33;1764005;80;21015;-76
2022/02/22 06:33:02;;;;;;;16.35;7.80;;;;;;;12.51;61.59;100583.63;1759067;79;21099;-74
2022/02/22 06:35:29;;;;;;;12.60;7.47;;;;;;;12.56;61.64;100585.66;1765607;79;20991;-77
2022/02/22 06:37:56;;;;;;;16.93;8.18;;;;;;;12.62;61.68;100584.14;1763586;79;21482;-76
2022/02/22 06:40:23;;;;;;;16.82;8.58;;;;;;;12.70;61.70;100582.13;1766866;80;20987;-76
2022/02/22 06:42:50;;;;;;;18.25;7.35;;;;;;;12.78;61.74;100586.65;1754922;79;20991;-74
2022/02/22 06:45:17;;;;;;;18.25;8.08;;;;;;;12.88;61.60;100580.69;1767797;79;21617;-77
2022/02/22 06:47:45;;;;;;;13.85;6.37;;;;;;;12.98;61.58;100584.21;1765393;79;21046;-75
2022/02/22 06:50:12;;;;;;;14.53;7.92;;;;;;;13.12;61.39;100585.09;1771285;79;21031;-75
2022/02/22 06:52:40;;;;;;;18.75;7.62;;;;;;;13.25;60.99;100584.22;1769269;80;20972;-75
2022/02/22 06:55:10;;;;;;;13.70;7.55;;;;;;;13.37;60.67;100582.02;1768623;79;21007;-76
2022/02/22 06:57:37;;;;;;;14.65;7.33;;;;;;;13.47;60.10;100589.07;1768446;79;20983;-76
2022/02/22 07:00:09;;;;;;;14.50;6.45;;;;;;;13.52;59.73;100585.82;1751232;79;21514;-74
2022/02/22 07:02:40;;;;;;;18.50;7.03;;;;;;;13.57;59.24;100587.83;1762774;79;21050;-71
2022/02/22 07:05:09;;;;;;;16.82;6.87;;;;;;;13.63;58.90;100590.22;1771587;79;21491;-74
2022/02/22 07:07:38;;;;;;;21.35;7.62;;;;;;;13.69;58.54;100596.52;1765650;79;21046;-72
2022/02/22 07:10:06;;;;;;;17.50;7.67;;;;;;;13.69;58.56;100603.06;1765707;79;21009;-77
2022/02/22 07:12:33;;;;;;;13.08;6.95;;;;;;;13.77;58.46;100603.18;1769989;79;20983;-76
2022/02/22 07:15:02;;;;;;;16.23;6.97;;;;;;;13.83;58.51;100606.02;1764300;79;21018;-71
2022/02/22 07:17:29;;;;;;;15.43;6.87;;;;;;;13.83;58.41;100602.09;1763739;81;21054;-72
2022/02/22 07:19:57;;;;;;;15.83;7.35;;;;;;;13.89;58.08;100601.86;1766196;79;21055;-72
2022/02/22 07:22:23;;;;;;;11.95;6.53;;;;;;;13.95;57.65;100597.70;1765871;79;21475;-75
2022/02/22 07:24:50;;;;;;;15.18;6.22;;;;;;;14.00;57.23;100601.01;1763211;79;20991;-73
2022/02/22 07:27:17;;;;;;;17.05;6.25;;;;;;;13.95;56.97;100602.94;1763183;79;21441;-74
2022/02/22 07:29:44;;;;;;;10.58;6.80;;;;;;;13.90;56.88;100602.27;1762430;79;21022;-73
2022/02/22 07:32:11;;;;;;;12.88;6.60;;;;;;;13.92;56.68;100608.30;1762792;79;20979;-73
2022/02/22 07:34:38;;;;;;;11.68;6.15;;;;;;;13.85;56.64;100605.05;1762876;79;20971;-72
2022/02/22 07:37:05;;;;;;;15.50;6.35;;;;;;;13.79;56.77;100609.20;1758837;79;20999;-74
2022/02/22 07:39:31;;;;;;;14.13;7.30;;;;;;;13.76;56.98;100607.17;1765956;79;21025;-70
2022/02/22 07:41:58;;;;;;;16.60;6.85;;;;;;;13.73;57.12;100610.74;1762527;79;21471;-75
2022/02/22 07:44:25;;;;;;;19.02;7.53;;;;;;;13.73;57.29;100616.42;1764724;81;21518;-77
2022/02/22 07:46:51;;;;;;;14.78;6.97;;;;;;;13.73;57.23;100613.80;1765916;79;20987;-72
2022/02/22 07:49:18;;;;;;;18.40;7.60;;;;;;;13.74;57.19;100605.06;1765954;79;21546;-79
2022/02/22 07:51:44;;;;;;;19.87;6.97;;;;;;;13.72;57.18;100605.58;1762992;79;21462;-77
2022/02/22 07:54:11;;;;;;;23.92;7.60;;;;;;;13.75;57.12;100613.30;1762853;79;21555;-76
2022/02/22 07:56:37;;;;;;;21.02;7.20;;;;;;;13.73;57.16;100615.11;1762958;79;20999;-76
2022/02/22 07:59:04;;;;;;;16.25;8.20;;;;;;;13.72;57.24;100616.87;1762527;79;20999;-78
2022/02/22 08:01:31;;;;;;;15.85;6.95;;;;;;;13.75;57.23;100615.91;1765169;79;21062;-73
2022/02/22 08:03:57;;;;;;;22.35;8.65;;;;;;;13.78;57.22;100610.58;1761493;79;21045;-75
2022/02/22 08:06:25;;;;;;;14.45;6.83;;;;;;;13.78;57.24;100613.19;1763655;80;21060;-76
2022/02/22 08:08:52;;;;;;;13.45;6.30;;;;;;;13.79;57.23;100609.66;1765976;79;21078;-71
2022/02/22 08:11:18;;;;;;;10.90;6.62;;;;;;;13.83;56.97;100608.62;1765594;79;21446;-73
2022/02/22 08:13:46;;;;;;;14.13;6.65;;;;;;;13.85;56.77;100614.66;1764898;79;21582;-74
2022/02/22 08:16:14;;;;;;;14.03;6.03;;;;;;;13.78;56.79;100614.50;1764826;79;21011;-75
2022/02/22 08:18:40;;;;;;;14.40;6.60;;;;;;;13.77;56.87;100616.70;1765618;79;20963;-73
2022/02/22 08:21:06;;;;;;;17.73;6.62;;;;;;;13.80;56.90;100617.91;1767442;79;20986;-80
2022/02/22 08:23:33;;;;;;;12.43;6.40;;;;;;;13.77;56.82;100621.94;1768507;79;20995;-78
2022/02/22 08:26:00;;;;;;;16.17;6.75;;;;;;;13.73;56.90;100625.57;1766855;79;21042;-75
2022/02/22 08:28:27;;;;;;;15.75;7.00;;;;;;;13.72;56.89;100619.95;1766176;79;20998;-73
2022/02/22 08:30:53;;;;;;;15.75;7.10;;;;;;;13.76;56.82;100618.48;1767248;80;20994;-75
2022/02/22 08:33:20;;;;;;;15.40;6.90;;;;;;;13.74;56.87;100622.06;1767693;79;20958;-73
2022/02/22 08:35:47;;;;;;;14.80;7.08;;;;;;;13.73;56.97;100615.11;1768406;79;21563;-73
2022/02/22 08:38:13;;;;;;;17.90;7.20;;;;;;;13.74;57.14;100613.77;1766600;79;20994;-75
2022/02/22 08:40:40;;;;;;;13.32;6.70;;;;;;;13.76;57.14;100609.78;1765559;79;20983;-73
2022/02/22 08:43:06;;;;;;;20.37;7.47;;;;;;;13.78;57.12;100612.75;1761958;79;20987;-72
2022/02/22 08:45:32;;;;;;;13.20;6.60;;;;;;;13.85;56.93;100614.20;1765347;79;21027;-75
2022/02/22 08:48:01;;;;;;;13.08;6.60;;;;;;;13.88;56.88;100616.72;1761618;79;21007;-73
2022/02/22 08:50:27;;;;;;;15.93;6.92;;;;;;;13.94;56.90;100620.86;1768439;79;20960;-73
2022/02/22 08:52:54;;;;;;;15.78;6.83;;;;;;;13.94;56.92;100622.17;1766632;79;21037;-75
2022/02/22 08:55:22;;;;;;;19.75;8.15;;;;;;;14.01;56.88;100620.19;1766049;79;21050;-72
2022/02/22 08:57:48;;;;;;;19.73;7.87;;;;;;;14.03;56.98;100621.84;1767385;80;20982;-75
2022/02/22 09:00:16;;;;;;;10.55;6.00;;;;;;;14.09;56.96;100619.44;1769238;80;20999;-73
2022/02/22 09:02:43;;;;;;;17.27;7.75;;;;;;;14.23;56.57;100617.14;1773786;79;21057;-74
2022/02/22 09:05:11;;;;;;;12.18;6.05;;;;;;;14.32;55.99;100621.58;1772550;79;20979;-75
2022/02/22 09:07:39;;;;;;;13.32;6.25;;;;;;;14.39;55.66;100619.58;1770620;79;20983;-72
2022/02/22 09:10:07;;;;;;;12.65;6.67;;;;;;;14.44;55.56;100625.50;1759103;79;21019;-72
2022/02/22 09:12:35;;;;;;;20.72;7.12;;;;;;;14.48;55.49;100622.70;1773932;79;20983;-71
2022/02/22 09:15:04;;;;;;;18.50;7.30;;;;;;;14.53;55.45;100620.73;1773780;79;21038;-73
2022/02/22 09:17:31;;;;;;;13.48;6.20;;;;;;;14.56;55.47;100623.25;1772145;79;21046;-73
2022/02/22 09:19:58;;;;;;;18.70;7.03;;;;;;;14.62;55.29;100626.93;1771266;79;21483;-74
2022/02/22 09:22:24;;;;;;;16.15;6.45;;;;;;;14.69;55.05;100629.68;1764732;79;21545;-75
2022/02/22 09:24:51;;;;;;;13.10;6.60;;;;;;;14.69;55.05;100632.30;1773606;79;21487;-71
2022/02/22 09:27:17;;;;;;;13.50;6.53;;;;;;;14.80;54.67;100634.94;1774057;79;21483;-72
2022/02/22 09:29:44;;;;;;;15.00;6.37;;;;;;;14.79;54.69;100635.42;1772206;79;21472;-73
2022/02/22 09:32:10;;;;;;;12.10;6.37;;;;;;;14.81;54.68;100630.11;1771978;79;21491;-75
2022/02/22 09:34:37;;;;;;;11.95;6.65;;;;;;;14.89;54.46;100622.78;1772913;80;21443;-71
2022/02/22 09:37:05;;;;;;;17.52;6.75;;;;;;;14.88;54.44;100623.72;1773908;79;21085;-74
2022/02/22 09:39:31;;;;;;;16.50;7.15;;;;;;;14.97;54.07;100633.80;1760245;79;20979;-74
2022/02/22 09:41:58;;;;;;;15.40;6.40;;;;;;;15.01;53.84;100635.38;1770754;79;21026;-74
2022/02/22 09:44:25;;;;;;;18.92;6.75;;;;;;;15.00;53.79;100634.99;1772565;80;20979;-72
2022/02/22 09:46:51;;;;;;;16.20;7.42;;;;;;;14.99;53.73;100634.58;1773848;79;21034;-72
2022/02/22 09:49:18;;;;;;;14.38;7.15;;;;;;;14.98;53.74;100630.27;1773850;79;20983;-75
2022/02/22 09:51:46;;;;;;;17.87;8.60;;;;;;;15.01;53.47;100634.06;1771167;79;20995;-71
2022/02/22 09:54:15;;;;;;;16.48;7.70;;;;;;;14.96;53.53;100632.94;1771156;79;21033;-76
2022/02/22 09:56:44;;;;;;;18.95;7.03;;;;;;;14.94;53.69;100626.08;1770435;79;20998;-71
2022/02/22 09:59:11;;;;;;;19.77;8.10;;;;;;;14.92;53.62;100633.98;1772225;79;21085;-71
2022/02/22 10:01:41;;;;;;;17.23;7.20;;;;;;;14.85;53.84;100644.78;1768136;80;21542;-72
2022/02/22 10:04:08;;;;;;;20.37;7.70;;;;;;;14.78;53.97;100638.08;1699968;84;21037;-72
2022/02/22 10:06:35;;;;;;;17.73;7.50;;;;;;;14.79;53.88;100642.41;1698599;84;21038;-75
2022/02/22 10:09:01;;;;;;;15.08;6.92;;;;;;;14.73;54.11;100645.28;1689297;84;21017;-70
2022/02/22 10:11:27;;;;;;;10.55;6.42;;;;;;;14.68;54.38;100650.25;1697610;84;21032;-71
2022/02/22 10:13:54;;;;;;;17.67;6.95;;;;;;;14.65;54.40;100651.67;1699606;84;20999;-73
2022/02/22 10:16:20;;;;;;;16.20;8.53;;;;;;;14.60;54.58;100656.25;1697129;84;21128;-71
2022/02/22 10:18:54;;;;;;;16.60;7.53;;;;;;;14.53;55.17;100645.61;1701180;84;21038;-70
2022/02/22 10:21:21;;;;;;;15.55;7.67;;;;;;;14.54;55.25;100645.16;1701702;84;20997;-69
2022/02/22 10:23:47;;;;;;;15.70;7.80;;;;;;;14.55;55.36;100654.71;1700934;84;21028;-74
2022/02/22 10:26:26;;;;;;;13.70;6.28;;;;;;;14.62;55.18;100654.42;1701451;84;21024;-73
2022/02/22 10:28:53;;;;;;;17.80;8.53;;;;;;;14.66;55.08;100647.30;1700220;84;21056;-71
2022/02/22 10:31:33;;;;;;;17.75;7.70;;;;;;;14.69;55.08;100650.63;1690327;84;21497;-69
2022/02/22 10:33:59;;;;;;;18.42;7.22;;;;;;;14.66;55.08;100656.01;1697273;84;21131;-69
2022/02/22 10:36:33;;;;;;;16.35;6.80;;;;;;;14.67;55.11;100657.70;1691004;84;20997;-69
2022/02/22 10:39:06;;;;;;;22.90;8.13;;;;;;;14.72;55.15;100654.04;1700297;84;21020;-68
2022/02/22 10:41:37;;;;;;;15.03;7.62;;;;;;;14.77;55.13;100649.48;1647513;86;21730;-72
2022/02/22 10:44:04;;;;;;;11.60;6.17;;;;;;;14.81;55.10;100651.06;1578921;89;21158;-74
2022/02/22 10:46:32;;;;;;;13.65;6.35;;;;;;;14.85;54.67;100650.02;1578224;89;21185;-75
2022/02/22 10:49:08;;;;;;;10.82;6.08;;;;;;;14.87;54.38;100643.81;1551594;90;21094;-72
2022/02/22 10:51:41;;;;;;;14.55;6.83;;;;;;;14.88;54.36;100642.05;1584472;89;20997;-71
2022/02/22 10:54:09;;;;;;;12.90;6.53;;;;;;;14.88;54.58;100647.30;1579928;89;21546;-73
2022/02/22 10:56:35;;;;;;;17.92;6.60;;;;;;;14.91;54.67;100657.18;1551262;90;21432;-76
2022/02/22 10:59:04;;;;;;;16.37;6.70;;;;;;;15.01;54.50;100673.36;1555368;90;21182;-78
2022/02/22 11:01:30;;;;;;;23.77;11.53;;;;;;;14.92;54.15;100669.83;1544516;91;21673;-75
2022/02/22 11:03:57;;;;;;;35.30;18.17;;;;;;;14.72;54.47;100677.61;1550358;91;21104;-75
2022/02/22 11:06:24;;;;;;;36.38;18.95;;;;;;;14.40;55.18;100671.89;1550139;91;21610;-75
2022/02/22 11:08:55;;;;;;;41.20;20.55;;;;;;;14.22;56.00;100675.16;1554064;91;21679;-73
2022/02/22 11:11:41;;;;;;;40.33;20.77;;;;;;;14.05;56.44;100680.19;1520179;93;21065;-76